sensor_id;sensor_type;location;lat;lon;timestamp;temperature;humidity
48206;DHT22;33995;48.202;16.260;2023-08-21T00:01:55;21.80;99.90
48206;DHT22;33995;48.202;16.260;2023-08-21T00:04:26;21.80;99.90
48206;DHT22;33995;48.202;16.260;2023-08-21T00:06:59;21.80;99.90
48206;DHT22;33995;48.202;16.260;2023-08-21T00:09:29;21.70;99.90
48206;DHT22;33995;48.202;16.260;2023-08-21T00:11:59;21.70;99.90
48206;DHT22;33995;48.202;16.260;2023-08-21T00:14:41;21.60;99.90
48206;DHT22;33995;48.202;16.260;2023-08-21T00:17:11;21.70;99.90
48206;DHT22;33995;48.202;16.260;2023-08-21T00:19:42;21.60;99.90
48206;DHT22;33995;48.202;16.260;2023-08-21T00:22:12;21.60;99.90
48206;DHT22;33995;48.202;16.260;2023-08-21T00:24:46;21.50;99.90
48206;DHT22;33995;48.202;16.260;2023-08-21T00:27:17;21.50;99.90
48206;DHT22;33995;48.202;16.260;2023-08-21T00:29:46;21.40;99.90
48206;DHT22;33995;48.202;16.260;2023-08-21T00:32:21;21.50;99.90
48206;DHT22;33995;48.202;16.260;2023-08-21T00:34:49;21.50;99.90
48206;DHT22;33995;48.202;16.260;2023-08-21T00:37:21;21.50;99.90
48206;DHT22;33995;48.202;16.260;2023-08-21T00:39:48;21.50;99.90
48206;DHT22;33995;48.202;16.260;2023-08-21T00:42:15;21.40;99.90
48206;DHT22;33995;48.202;16.260;2023-08-21T00:44:45;21.40;99.90
48206;DHT22;33995;48.202;16.260;2023-08-21T00:47:15;21.40;99.90
48206;DHT22;33995;48.202;16.260;2023-08-21T00:49:43;21.40;99.90
48206;DHT22;33995;48.202;16.260;2023-08-21T00:52:18;21.40;99.90
48206;DHT22;33995;48.202;16.260;2023-08-21T00:54:50;21.40;99.90
48206;DHT22;33995;48.202;16.260;2023-08-21T00:57:21;21.30;99.90
48206;DHT22;33995;48.202;16.260;2023-08-21T01:00:02;21.30;99.90
48206;DHT22;33995;48.202;16.260;2023-08-21T01:02:39;21.20;99.90
48206;DHT22;33995;48.202;16.260;2023-08-21T01:05:14;21.20;99.90
48206;DHT22;33995;48.202;16.260;2023-08-21T01:08:14;21.20;99.90
48206;DHT22;33995;48.202;16.260;2023-08-21T01:11:00;21.10;99.90
48206;DHT22;33995;48.202;16.260;2023-08-21T01:16:20;21.20;99.90
48206;DHT22;33995;48.202;16.260;2023-08-21T01:18:53;21.20;99.90
48206;DHT22;33995;48.202;16.260;2023-08-21T01:21:24;21.10;99.90
48206;DHT22;33995;48.202;16.260;2023-08-21T01:23:53;21.10;99.90
48206;DHT22;33995;48.202;16.260;2023-08-21T01:26:23;21.10;99.90
48206;DHT22;33995;48.202;16.260;2023-08-21T01:28:54;21.10;99.90
48206;DHT22;33995;48.202;16.260;2023-08-21T01:31:29;21.00;99.90
48206;DHT22;33995;48.202;16.260;2023-08-21T01:34:04;21.10;99.90
48206;DHT22;33995;48.202;16.260;2023-08-21T01:36:41;21.00;99.90
48206;DHT22;33995;48.202;16.260;2023-08-21T01:39:32;21.00;99.90
48206;DHT22;33995;48.202;16.260;2023-08-21T01:42:04;21.00;99.90
48206;DHT22;33995;48.202;16.260;2023-08-21T01:44:33;21.00;99.90
48206;DHT22;33995;48.202;16.260;2023-08-21T01:47:04;20.90;99.90
48206;DHT22;33995;48.202;16.260;2023-08-21T01:49:40;20.90;99.90
48206;DHT22;33995;48.202;16.260;2023-08-21T01:52:14;20.90;99.90
48206;DHT22;33995;48.202;16.260;2023-08-21T01:54:43;20.90;99.90
48206;DHT22;33995;48.202;16.260;2023-08-21T01:57:15;20.80;99.90
48206;DHT22;33995;48.202;16.260;2023-08-21T01:59:47;20.80;99.90
48206;DHT22;33995;48.202;16.260;2023-08-21T02:02:16;20.80;99.90
48206;DHT22;33995;48.202;16.260;2023-08-21T02:04:47;20.80;99.90
48206;DHT22;33995;48.202;16.260;2023-08-21T02:07:19;20.80;99.90
48206;DHT22;33995;48.202;16.260;2023-08-21T02:09:49;20.80;99.90
48206;DHT22;33995;48.202;16.260;2023-08-21T02:12:17;20.80;99.90
48206;DHT22;33995;48.202;16.260;2023-08-21T02:14:49;20.80;99.90
48206;DHT22;33995;48.202;16.260;2023-08-21T02:17:26;20.70;99.90
48206;DHT22;33995;48.202;16.260;2023-08-21T02:19:57;20.70;99.90
48206;DHT22;33995;48.202;16.260;2023-08-21T02:22:30;20.70;99.90
48206;DHT22;33995;48.202;16.260;2023-08-21T02:25:05;20.70;99.90
48206;DHT22;33995;48.202;16.260;2023-08-21T02:27:32;20.60;99.90
48206;DHT22;33995;48.202;16.260;2023-08-21T02:30:02;20.60;99.90
48206;DHT22;33995;48.202;16.260;2023-08-21T02:32:40;20.60;99.90
48206;DHT22;33995;48.202;16.260;2023-08-21T02:35:24;20.60;99.90
48206;DHT22;33995;48.202;16.260;2023-08-21T02:37:55;20.50;99.90
48206;DHT22;33995;48.202;16.260;2023-08-21T02:40:28;20.50;99.90
48206;DHT22;33995;48.202;16.260;2023-08-21T02:42:59;20.50;99.90
48206;DHT22;33995;48.202;16.260;2023-08-21T02:45:31;20.50;99.90
48206;DHT22;33995;48.202;16.260;2023-08-21T02:47:59;20.50;99.90
48206;DHT22;33995;48.202;16.260;2023-08-21T02:50:36;20.50;99.90
48206;DHT22;33995;48.202;16.260;2023-08-21T02:53:06;20.40;99.90
48206;DHT22;33995;48.202;16.260;2023-08-21T02:55:33;20.40;99.90
48206;DHT22;33995;48.202;16.260;2023-08-21T02:58:08;20.40;99.90
48206;DHT22;33995;48.202;16.260;2023-08-21T03:00:40;20.40;99.90
48206;DHT22;33995;48.202;16.260;2023-08-21T03:03:15;20.40;99.90
48206;DHT22;33995;48.202;16.260;2023-08-21T03:05:48;20.40;99.90
48206;DHT22;33995;48.202;16.260;2023-08-21T03:08:19;20.40;99.90
48206;DHT22;33995;48.202;16.260;2023-08-21T03:10:52;20.40;99.90
48206;DHT22;33995;48.202;16.260;2023-08-21T03:13:21;20.40;99.90
48206;DHT22;33995;48.202;16.260;2023-08-21T03:15:50;20.40;99.90
48206;DHT22;33995;48.202;16.260;2023-08-21T03:18:21;20.40;99.90
48206;DHT22;33995;48.202;16.260;2023-08-21T03:20:55;20.40;99.90
48206;DHT22;33995;48.202;16.260;2023-08-21T03:23:28;20.30;99.90
48206;DHT22;33995;48.202;16.260;2023-08-21T03:26:03;20.30;99.90
48206;DHT22;33995;48.202;16.260;2023-08-21T03:28:35;20.20;99.90
48206;DHT22;33995;48.202;16.260;2023-08-21T03:31:06;20.30;99.90
48206;DHT22;33995;48.202;16.260;2023-08-21T03:33:44;20.30;99.90
48206;DHT22;33995;48.202;16.260;2023-08-21T03:36:13;20.20;99.90
48206;DHT22;33995;48.202;16.260;2023-08-21T03:38:44;20.20;99.90
48206;DHT22;33995;48.202;16.260;2023-08-21T03:41:15;20.20;99.90
48206;DHT22;33995;48.202;16.260;2023-08-21T03:43:44;20.20;99.90
48206;DHT22;33995;48.202;16.260;2023-08-21T03:46:12;20.20;99.90
48206;DHT22;33995;48.202;16.260;2023-08-21T03:48:44;20.20;99.90
48206;DHT22;33995;48.202;16.260;2023-08-21T03:51:19;20.20;99.90
48206;DHT22;33995;48.202;16.260;2023-08-21T03:53:53;20.20;99.90
48206;DHT22;33995;48.202;16.260;2023-08-21T03:56:27;20.20;99.90
48206;DHT22;33995;48.202;16.260;2023-08-21T03:58:58;20.20;99.90
48206;DHT22;33995;48.202;16.260;2023-08-21T04:01:32;20.20;99.90
48206;DHT22;33995;48.202;16.260;2023-08-21T04:04:13;20.10;99.90
48206;DHT22;33995;48.202;16.260;2023-08-21T04:06:42;20.10;99.90
48206;DHT22;33995;48.202;16.260;2023-08-21T04:09:13;20.10;99.90
48206;DHT22;33995;48.202;16.260;2023-08-21T04:11:44;20.10;99.90
48206;DHT22;33995;48.202;16.260;2023-08-21T04:14:14;20.10;99.90
48206;DHT22;33995;48.202;16.260;2023-08-21T04:16:45;20.10;99.90
48206;DHT22;33995;48.202;16.260;2023-08-21T04:19:19;20.10;99.90
48206;DHT22;33995;48.202;16.260;2023-08-21T04:21:50;20.10;99.90
48206;DHT22;33995;48.202;16.260;2023-08-21T04:24:19;20.10;99.90
48206;DHT22;33995;48.202;16.260;2023-08-21T04:26:52;20.10;99.90
48206;DHT22;33995;48.202;16.260;2023-08-21T04:29:21;20.10;99.90
48206;DHT22;33995;48.202;16.260;2023-08-21T04:31:51;20.10;99.90
48206;DHT22;33995;48.202;16.260;2023-08-21T04:34:29;20.10;99.90
48206;DHT22;33995;48.202;16.260;2023-08-21T04:37:00;20.10;99.90
48206;DHT22;33995;48.202;16.260;2023-08-21T04:39:33;20.10;99.90
48206;DHT22;33995;48.202;16.260;2023-08-21T04:42:07;20.10;99.90
48206;DHT22;33995;48.202;16.260;2023-08-21T04:44:38;20.10;99.90
48206;DHT22;33995;48.202;16.260;2023-08-21T04:47:26;20.10;99.90
48206;DHT22;33995;48.202;16.260;2023-08-21T04:50:04;20.10;99.90
48206;DHT22;33995;48.202;16.260;2023-08-21T04:52:35;20.10;99.90
48206;DHT22;33995;48.202;16.260;2023-08-21T04:55:06;20.10;99.90
48206;DHT22;33995;48.202;16.260;2023-08-21T04:57:42;20.20;99.90
48206;DHT22;33995;48.202;16.260;2023-08-21T05:00:13;20.20;99.90
48206;DHT22;33995;48.202;16.260;2023-08-21T05:02:46;20.20;99.90
48206;DHT22;33995;48.202;16.260;2023-08-21T05:05:22;20.20;99.90
48206;DHT22;33995;48.202;16.260;2023-08-21T05:08:01;20.20;99.90
48206;DHT22;33995;48.202;16.260;2023-08-21T05:10:33;20.10;99.90
48206;DHT22;33995;48.202;16.260;2023-08-21T05:13:03;20.20;99.90
48206;DHT22;33995;48.202;16.260;2023-08-21T05:15:35;20.20;99.90
48206;DHT22;33995;48.202;16.260;2023-08-21T05:18:06;20.20;99.90
48206;DHT22;33995;48.202;16.260;2023-08-21T05:20:35;20.20;99.90
48206;DHT22;33995;48.202;16.260;2023-08-21T05:23:07;20.20;99.90
48206;DHT22;33995;48.202;16.260;2023-08-21T05:25:39;20.20;99.90
48206;DHT22;33995;48.202;16.260;2023-08-21T05:28:09;20.30;99.90
48206;DHT22;33995;48.202;16.260;2023-08-21T05:30:38;20.30;99.90
48206;DHT22;33995;48.202;16.260;2023-08-21T05:33:11;20.30;99.90
48206;DHT22;33995;48.202;16.260;2023-08-21T05:35:45;20.40;99.90
48206;DHT22;33995;48.202;16.260;2023-08-21T05:38:16;20.40;99.90
48206;DHT22;33995;48.202;16.260;2023-08-21T05:40:48;20.50;99.90
48206;DHT22;33995;48.202;16.260;2023-08-21T05:43:17;20.50;99.90
48206;DHT22;33995;48.202;16.260;2023-08-21T05:45:52;20.60;99.90
48206;DHT22;33995;48.202;16.260;2023-08-21T05:48:21;20.50;99.90
48206;DHT22;33995;48.202;16.260;2023-08-21T05:50:55;20.50;99.90
48206;DHT22;33995;48.202;16.260;2023-08-21T05:53:28;20.50;99.90
48206;DHT22;33995;48.202;16.260;2023-08-21T05:56:01;20.60;99.90
48206;DHT22;33995;48.202;16.260;2023-08-21T05:58:29;20.60;99.90
48206;DHT22;33995;48.202;16.260;2023-08-21T06:01:07;20.60;99.90
48206;DHT22;33995;48.202;16.260;2023-08-21T06:03:38;20.70;99.90
48206;DHT22;33995;48.202;16.260;2023-08-21T06:06:32;20.80;99.90
48206;DHT22;33995;48.202;16.260;2023-08-21T06:09:04;20.80;99.90
48206;DHT22;33995;48.202;16.260;2023-08-21T06:11:32;20.90;99.90
48206;DHT22;33995;48.202;16.260;2023-08-21T06:14:09;20.90;99.90
48206;DHT22;33995;48.202;16.260;2023-08-21T06:16:39;20.90;99.90
48206;DHT22;33995;48.202;16.260;2023-08-21T06:19:08;20.90;99.90
48206;DHT22;33995;48.202;16.260;2023-08-21T06:21:35;20.90;99.90
48206;DHT22;33995;48.202;16.260;2023-08-21T06:24:07;21.00;99.90
48206;DHT22;33995;48.202;16.260;2023-08-21T06:26:47;21.00;99.90
48206;DHT22;33995;48.202;16.260;2023-08-21T06:29:22;21.10;99.90
48206;DHT22;33995;48.202;16.260;2023-08-21T06:32:04;21.10;99.90
48206;DHT22;33995;48.202;16.260;2023-08-21T06:34:44;21.10;99.90
48206;DHT22;33995;48.202;16.260;2023-08-21T06:37:20;21.30;99.90
48206;DHT22;33995;48.202;16.260;2023-08-21T06:39:52;21.40;99.90
48206;DHT22;33995;48.202;16.260;2023-08-21T06:42:24;21.40;99.90
48206;DHT22;33995;48.202;16.260;2023-08-21T06:44:55;21.50;99.90
48206;DHT22;33995;48.202;16.260;2023-08-21T06:47:34;21.50;99.90
48206;DHT22;33995;48.202;16.260;2023-08-21T06:50:05;21.60;99.90
48206;DHT22;33995;48.202;16.260;2023-08-21T06:52:45;21.70;99.90
48206;DHT22;33995;48.202;16.260;2023-08-21T06:55:16;21.80;99.90
48206;DHT22;33995;48.202;16.260;2023-08-21T06:57:44;22.00;99.90
48206;DHT22;33995;48.202;16.260;2023-08-21T07:00:26;22.20;99.90
48206;DHT22;33995;48.202;16.260;2023-08-21T07:02:59;22.40;99.90
48206;DHT22;33995;48.202;16.260;2023-08-21T07:05:56;22.60;99.90
48206;DHT22;33995;48.202;16.260;2023-08-21T07:08:32;22.90;99.90
48206;DHT22;33995;48.202;16.260;2023-08-21T07:11:05;23.00;99.90
48206;DHT22;33995;48.202;16.260;2023-08-21T07:13:51;23.40;99.90
48206;DHT22;33995;48.202;16.260;2023-08-21T07:16:21;23.60;99.90
48206;DHT22;33995;48.202;16.260;2023-08-21T07:18:50;23.80;99.90
48206;DHT22;33995;48.202;16.260;2023-08-21T07:21:21;24.00;99.90
48206;DHT22;33995;48.202;16.260;2023-08-21T07:24:04;24.20;99.90
48206;DHT22;33995;48.202;16.260;2023-08-21T07:26:45;24.40;99.90
48206;DHT22;33995;48.202;16.260;2023-08-21T07:29:16;24.60;99.90
48206;DHT22;33995;48.202;16.260;2023-08-21T07:31:47;24.80;99.90
48206;DHT22;33995;48.202;16.260;2023-08-21T07:34:23;25.00;99.90
48206;DHT22;33995;48.202;16.260;2023-08-21T07:36:54;25.20;99.90
48206;DHT22;33995;48.202;16.260;2023-08-21T07:39:30;25.20;99.90
48206;DHT22;33995;48.202;16.260;2023-08-21T07:41:59;25.40;99.90
48206;DHT22;33995;48.202;16.260;2023-08-21T07:44:27;25.70;99.90
48206;DHT22;33995;48.202;16.260;2023-08-21T07:47:02;25.90;99.90
48206;DHT22;33995;48.202;16.260;2023-08-21T07:49:32;26.00;99.90
48206;DHT22;33995;48.202;16.260;2023-08-21T07:52:06;26.10;99.90
48206;DHT22;33995;48.202;16.260;2023-08-21T07:54:38;26.20;99.90
48206;DHT22;33995;48.202;16.260;2023-08-21T07:57:11;26.30;99.90
48206;DHT22;33995;48.202;16.260;2023-08-21T07:59:42;26.50;99.90
48206;DHT22;33995;48.202;16.260;2023-08-21T08:02:14;26.70;99.90
48206;DHT22;33995;48.202;16.260;2023-08-21T08:04:46;26.80;99.90
48206;DHT22;33995;48.202;16.260;2023-08-21T08:07:20;27.00;99.90
48206;DHT22;33995;48.202;16.260;2023-08-21T08:09:48;27.20;99.90
48206;DHT22;33995;48.202;16.260;2023-08-21T08:12:16;27.40;99.90
48206;DHT22;33995;48.202;16.260;2023-08-21T08:14:56;27.50;99.90
48206;DHT22;33995;48.202;16.260;2023-08-21T08:17:26;27.60;99.90
48206;DHT22;33995;48.202;16.260;2023-08-21T08:19:55;27.80;99.90
48206;DHT22;33995;48.202;16.260;2023-08-21T08:22:24;27.90;99.90
48206;DHT22;33995;48.202;16.260;2023-08-21T08:24:54;28.00;99.90
48206;DHT22;33995;48.202;16.260;2023-08-21T08:27:24;28.20;99.90
48206;DHT22;33995;48.202;16.260;2023-08-21T08:29:57;28.20;99.90
48206;DHT22;33995;48.202;16.260;2023-08-21T08:32:25;28.40;99.90
48206;DHT22;33995;48.202;16.260;2023-08-21T08:34:59;28.50;99.90
48206;DHT22;33995;48.202;16.260;2023-08-21T08:37:30;28.70;99.90
48206;DHT22;33995;48.202;16.260;2023-08-21T08:40:05;28.80;99.90
48206;DHT22;33995;48.202;16.260;2023-08-21T08:42:40;28.90;99.90
48206;DHT22;33995;48.202;16.260;2023-08-21T08:45:24;29.10;99.90
48206;DHT22;33995;48.202;16.260;2023-08-21T08:48:04;29.20;99.90
48206;DHT22;33995;48.202;16.260;2023-08-21T08:50:41;29.30;99.90
48206;DHT22;33995;48.202;16.260;2023-08-21T08:53:15;29.30;99.90
48206;DHT22;33995;48.202;16.260;2023-08-21T08:56:08;29.40;99.90
48206;DHT22;33995;48.202;16.260;2023-08-21T08:58:46;29.70;99.90
48206;DHT22;33995;48.202;16.260;2023-08-21T09:01:14;29.80;99.90
48206;DHT22;33995;48.202;16.260;2023-08-21T09:03:48;29.90;99.90
48206;DHT22;33995;48.202;16.260;2023-08-21T09:06:25;30.10;99.90
48206;DHT22;33995;48.202;16.260;2023-08-21T09:09:02;30.20;99.90
48206;DHT22;33995;48.202;16.260;2023-08-21T09:11:35;30.20;99.90
48206;DHT22;33995;48.202;16.260;2023-08-21T09:14:16;30.30;99.90
48206;DHT22;33995;48.202;16.260;2023-08-21T09:17:00;30.40;99.90
48206;DHT22;33995;48.202;16.260;2023-08-21T09:19:32;30.60;99.90
48206;DHT22;33995;48.202;16.260;2023-08-21T09:22:19;30.70;99.90
48206;DHT22;33995;48.202;16.260;2023-08-21T09:25:08;30.90;99.90
48206;DHT22;33995;48.202;16.260;2023-08-21T09:27:39;30.90;99.90
48206;DHT22;33995;48.202;16.260;2023-08-21T09:30:11;31.00;99.90
48206;DHT22;33995;48.202;16.260;2023-08-21T09:33:00;31.00;99.90
48206;DHT22;33995;48.202;16.260;2023-08-21T09:35:34;31.00;99.90
48206;DHT22;33995;48.202;16.260;2023-08-21T09:38:01;31.00;99.90
48206;DHT22;33995;48.202;16.260;2023-08-21T09:40:28;31.10;99.90
48206;DHT22;33995;48.202;16.260;2023-08-21T09:43:12;31.20;99.90
48206;DHT22;33995;48.202;16.260;2023-08-21T09:45:53;31.40;99.90
48206;DHT22;33995;48.202;16.260;2023-08-21T09:48:27;31.40;99.90
48206;DHT22;33995;48.202;16.260;2023-08-21T09:50:58;31.50;99.90
48206;DHT22;33995;48.202;16.260;2023-08-21T09:53:33;31.60;99.90
48206;DHT22;33995;48.202;16.260;2023-08-21T09:56:10;31.70;99.90
48206;DHT22;33995;48.202;16.260;2023-08-21T09:58:57;31.70;99.90
48206;DHT22;33995;48.202;16.260;2023-08-21T10:01:25;31.80;99.90
48206;DHT22;33995;48.202;16.260;2023-08-21T10:04:02;31.90;99.90
48206;DHT22;33995;48.202;16.260;2023-08-21T10:06:31;31.90;99.90
48206;DHT22;33995;48.202;16.260;2023-08-21T10:09:01;31.90;99.90
48206;DHT22;33995;48.202;16.260;2023-08-21T10:11:34;31.90;99.90
48206;DHT22;33995;48.202;16.260;2023-08-21T10:14:07;32.00;99.90
48206;DHT22;33995;48.202;16.260;2023-08-21T10:16:38;32.20;99.90
48206;DHT22;33995;48.202;16.260;2023-08-21T10:19:14;32.20;99.90
48206;DHT22;33995;48.202;16.260;2023-08-21T10:21:45;32.20;99.90
48206;DHT22;33995;48.202;16.260;2023-08-21T10:24:33;32.30;99.90
48206;DHT22;33995;48.202;16.260;2023-08-21T10:27:06;32.30;99.90
48206;DHT22;33995;48.202;16.260;2023-08-21T10:29:56;32.20;99.90
48206;DHT22;33995;48.202;16.260;2023-08-21T10:32:24;32.40;99.90
48206;DHT22;33995;48.202;16.260;2023-08-21T10:34:55;32.50;99.90
48206;DHT22;33995;48.202;16.260;2023-08-21T10:37:35;32.50;99.90
48206;DHT22;33995;48.202;16.260;2023-08-21T10:40:25;32.60;99.90
48206;DHT22;33995;48.202;16.260;2023-08-21T10:42:54;32.60;99.90
48206;DHT22;33995;48.202;16.260;2023-08-21T10:45:54;32.60;99.90
48206;DHT22;33995;48.202;16.260;2023-08-21T10:48:32;32.70;99.90
48206;DHT22;33995;48.202;16.260;2023-08-21T10:51:03;32.80;99.90
48206;DHT22;33995;48.202;16.260;2023-08-21T10:53:38;32.80;99.90
48206;DHT22;33995;48.202;16.260;2023-08-21T10:56:13;32.90;99.90
48206;DHT22;33995;48.202;16.260;2023-08-21T10:58:45;32.90;99.90
48206;DHT22;33995;48.202;16.260;2023-08-21T11:01:17;33.00;99.90
48206;DHT22;33995;48.202;16.260;2023-08-21T11:03:53;33.10;99.90
48206;DHT22;33995;48.202;16.260;2023-08-21T11:06:21;33.20;99.90
48206;DHT22;33995;48.202;16.260;2023-08-21T11:09:02;33.30;99.80
48206;DHT22;33995;48.202;16.260;2023-08-21T11:11:35;33.30;99.80
48206;DHT22;33995;48.202;16.260;2023-08-21T11:14:04;33.40;99.90
48206;DHT22;33995;48.202;16.260;2023-08-21T11:16:33;33.40;99.90
48206;DHT22;33995;48.202;16.260;2023-08-21T11:19:05;33.40;99.60
48206;DHT22;33995;48.202;16.260;2023-08-21T11:21:56;33.40;99.60
48206;DHT22;33995;48.202;16.260;2023-08-21T11:24:44;33.40;98.40
48206;DHT22;33995;48.202;16.260;2023-08-21T11:27:17;33.40;98.40
48206;DHT22;33995;48.202;16.260;2023-08-21T11:29:54;33.50;98.20
48206;DHT22;33995;48.202;16.260;2023-08-21T11:32:27;33.70;98.10
48206;DHT22;33995;48.202;16.260;2023-08-21T11:34:58;33.80;98.30
48206;DHT22;33995;48.202;16.260;2023-08-21T11:37:43;33.80;97.70
48206;DHT22;33995;48.202;16.260;2023-08-21T11:40:21;33.90;96.80
48206;DHT22;33995;48.202;16.260;2023-08-21T11:42:52;34.00;97.60
48206;DHT22;33995;48.202;16.260;2023-08-21T11:45:25;34.00;97.50
48206;DHT22;33995;48.202;16.260;2023-08-21T11:48:02;34.10;97.30
48206;DHT22;33995;48.202;16.260;2023-08-21T11:50:33;34.10;97.30
48206;DHT22;33995;48.202;16.260;2023-08-21T11:53:03;34.20;97.40
48206;DHT22;33995;48.202;16.260;2023-08-21T11:55:42;34.30;97.50
48206;DHT22;33995;48.202;16.260;2023-08-21T11:58:28;34.30;96.80
48206;DHT22;33995;48.202;16.260;2023-08-21T12:01:04;34.40;96.70
48206;DHT22;33995;48.202;16.260;2023-08-21T12:03:39;34.50;96.90
48206;DHT22;33995;48.202;16.260;2023-08-21T12:06:12;34.50;96.00
48206;DHT22;33995;48.202;16.260;2023-08-21T12:08:45;34.70;95.90
48206;DHT22;33995;48.202;16.260;2023-08-21T12:11:13;34.60;95.70
48206;DHT22;33995;48.202;16.260;2023-08-21T12:13:43;34.70;95.60
48206;DHT22;33995;48.202;16.260;2023-08-21T12:16:17;34.80;94.70
48206;DHT22;33995;48.202;16.260;2023-08-21T12:18:50;34.90;94.10
48206;DHT22;33995;48.202;16.260;2023-08-21T12:21:25;34.90;93.40
48206;DHT22;33995;48.202;16.260;2023-08-21T12:23:58;34.80;93.60
48206;DHT22;33995;48.202;16.260;2023-08-21T12:26:26;34.80;93.20
48206;DHT22;33995;48.202;16.260;2023-08-21T12:29:08;34.70;93.30
48206;DHT22;33995;48.202;16.260;2023-08-21T12:31:42;34.70;93.70
48206;DHT22;33995;48.202;16.260;2023-08-21T12:34:17;34.70;93.70
48206;DHT22;33995;48.202;16.260;2023-08-21T12:36:50;34.70;93.60
48206;DHT22;33995;48.202;16.260;2023-08-21T12:39:28;34.70;93.90
48206;DHT22;33995;48.202;16.260;2023-08-21T12:42:08;34.70;94.50
48206;DHT22;33995;48.202;16.260;2023-08-21T12:44:39;34.70;94.20
48206;DHT22;33995;48.202;16.260;2023-08-21T12:47:10;34.60;94.00
48206;DHT22;33995;48.202;16.260;2023-08-21T12:49:37;34.50;94.20
48206;DHT22;33995;48.202;16.260;2023-08-21T12:52:07;34.60;94.30
48206;DHT22;33995;48.202;16.260;2023-08-21T12:54:39;34.70;94.40
48206;DHT22;33995;48.202;16.260;2023-08-21T12:57:11;34.70;94.10
48206;DHT22;33995;48.202;16.260;2023-08-21T12:59:45;34.70;93.80
48206;DHT22;33995;48.202;16.260;2023-08-21T13:02:17;34.70;93.90
48206;DHT22;33995;48.202;16.260;2023-08-21T13:04:51;34.60;93.50
48206;DHT22;33995;48.202;16.260;2023-08-21T13:07:26;34.60;93.20
48206;DHT22;33995;48.202;16.260;2023-08-21T13:09:56;34.70;93.80
48206;DHT22;33995;48.202;16.260;2023-08-21T13:12:31;34.60;94.20
48206;DHT22;33995;48.202;16.260;2023-08-21T13:15:06;34.60;93.90
48206;DHT22;33995;48.202;16.260;2023-08-21T13:17:46;34.60;93.70
48206;DHT22;33995;48.202;16.260;2023-08-21T13:20:24;34.70;95.30
48206;DHT22;33995;48.202;16.260;2023-08-21T13:22:58;34.40;95.90
48206;DHT22;33995;48.202;16.260;2023-08-21T13:25:35;34.30;95.60
48206;DHT22;33995;48.202;16.260;2023-08-21T13:28:14;34.10;95.60
48206;DHT22;33995;48.202;16.260;2023-08-21T13:30:43;34.10;94.40
48206;DHT22;33995;48.202;16.260;2023-08-21T13:33:18;34.20;93.20
48206;DHT22;33995;48.202;16.260;2023-08-21T13:36:01;34.30;93.40
48206;DHT22;33995;48.202;16.260;2023-08-21T13:38:31;34.30;93.10
48206;DHT22;33995;48.202;16.260;2023-08-21T13:41:01;34.50;93.10
48206;DHT22;33995;48.202;16.260;2023-08-21T13:43:39;34.50;93.10
48206;DHT22;33995;48.202;16.260;2023-08-21T13:46:23;34.40;93.00
48206;DHT22;33995;48.202;16.260;2023-08-21T13:48:57;34.50;92.90
48206;DHT22;33995;48.202;16.260;2023-08-21T13:51:32;34.50;92.40
48206;DHT22;33995;48.202;16.260;2023-08-21T13:54:15;34.50;92.70
48206;DHT22;33995;48.202;16.260;2023-08-21T13:56:48;34.40;92.20
48206;DHT22;33995;48.202;16.260;2023-08-21T13:59:19;34.40;92.40
48206;DHT22;33995;48.202;16.260;2023-08-21T14:01:48;34.30;91.90
48206;DHT22;33995;48.202;16.260;2023-08-21T14:04:23;34.30;91.80
48206;DHT22;33995;48.202;16.260;2023-08-21T14:06:52;34.40;91.50
48206;DHT22;33995;48.202;16.260;2023-08-21T14:09:26;34.30;91.90
48206;DHT22;33995;48.202;16.260;2023-08-21T14:11:56;34.20;91.90
48206;DHT22;33995;48.202;16.260;2023-08-21T14:14:25;34.10;93.00
48206;DHT22;33995;48.202;16.260;2023-08-21T14:16:57;33.90;92.20
48206;DHT22;33995;48.202;16.260;2023-08-21T14:19:30;33.80;91.90
48206;DHT22;33995;48.202;16.260;2023-08-21T14:21:59;33.80;91.90
48206;DHT22;33995;48.202;16.260;2023-08-21T14:24:27;33.90;92.00
48206;DHT22;33995;48.202;16.260;2023-08-21T14:27:08;33.90;91.40
48206;DHT22;33995;48.202;16.260;2023-08-21T14:29:43;33.90;91.50
48206;DHT22;33995;48.202;16.260;2023-08-21T14:32:18;33.70;92.90
48206;DHT22;33995;48.202;16.260;2023-08-21T14:34:49;33.70;91.00
48206;DHT22;33995;48.202;16.260;2023-08-21T14:37:21;33.80;90.90
48206;DHT22;33995;48.202;16.260;2023-08-21T14:39:52;33.80;91.30
48206;DHT22;33995;48.202;16.260;2023-08-21T14:42:22;33.80;91.30
48206;DHT22;33995;48.202;16.260;2023-08-21T14:45:01;33.90;90.70
48206;DHT22;33995;48.202;16.260;2023-08-21T14:47:34;33.90;90.50
48206;DHT22;33995;48.202;16.260;2023-08-21T14:50:08;33.80;91.60
48206;DHT22;33995;48.202;16.260;2023-08-21T14:53:03;33.70;90.60
48206;DHT22;33995;48.202;16.260;2023-08-21T14:55:34;33.70;90.10
48206;DHT22;33995;48.202;16.260;2023-08-21T14:58:04;33.70;90.70
48206;DHT22;33995;48.202;16.260;2023-08-21T15:00:43;33.70;90.20
48206;DHT22;33995;48.202;16.260;2023-08-21T15:03:10;33.60;90.80
48206;DHT22;33995;48.202;16.260;2023-08-21T15:05:56;33.60;90.70
48206;DHT22;33995;48.202;16.260;2023-08-21T15:08:26;33.60;89.90
48206;DHT22;33995;48.202;16.260;2023-08-21T15:10:54;33.50;89.90
48206;DHT22;33995;48.202;16.260;2023-08-21T15:13:39;33.40;89.70
48206;DHT22;33995;48.202;16.260;2023-08-21T15:16:08;33.30;90.20
48206;DHT22;33995;48.202;16.260;2023-08-21T15:18:40;33.30;90.20
48206;DHT22;33995;48.202;16.260;2023-08-21T15:21:14;33.30;90.40
48206;DHT22;33995;48.202;16.260;2023-08-21T15:24:00;33.30;90.20
48206;DHT22;33995;48.202;16.260;2023-08-21T15:26:51;33.30;90.10
48206;DHT22;33995;48.202;16.260;2023-08-21T15:29:30;33.20;90.20
48206;DHT22;33995;48.202;16.260;2023-08-21T15:32:04;33.20;90.50
48206;DHT22;33995;48.202;16.260;2023-08-21T15:34:42;33.20;90.40
48206;DHT22;33995;48.202;16.260;2023-08-21T15:37:12;33.20;91.00
48206;DHT22;33995;48.202;16.260;2023-08-21T15:39:46;33.10;91.00
48206;DHT22;33995;48.202;16.260;2023-08-21T15:42:20;33.00;91.10
48206;DHT22;33995;48.202;16.260;2023-08-21T15:44:49;33.00;91.50
48206;DHT22;33995;48.202;16.260;2023-08-21T15:47:18;33.00;91.20
48206;DHT22;33995;48.202;16.260;2023-08-21T15:50:09;33.00;91.20
48206;DHT22;33995;48.202;16.260;2023-08-21T15:52:42;32.90;91.30
48206;DHT22;33995;48.202;16.260;2023-08-21T15:55:11;32.80;91.50
48206;DHT22;33995;48.202;16.260;2023-08-21T15:57:46;32.80;91.30
48206;DHT22;33995;48.202;16.260;2023-08-21T16:00:24;32.70;91.80